Terminal Aerodrome Forecast
Issued by NWS Cleveland, OH

Home | Current Version | Previous Version | Graphics & Text | Print | Product List | Glossary On
Versions: 1 2 3 4 5 6 7 8 9 10 11 12 13 14 15 16
930
FTUS41 KCLE 192100 AAB
TAFMFD
TAF AMD
KMFD 192105Z 1921/2018 31010KT P6SM SCT025 OVC030
     FM200800 33005KT P6SM BKN035
     FM201300 01010KT P6SM SCT035 BKN250=

USA.gov is the U.S. government's official web portal to all federal, state and local government web resources and services.